Shache, China
Current Conditions -  °F | °C
As of 2:00 AM on Tuesday 25 Nov 2014 (Local Time) from ZWSH Reporting Station
NA  
Wind Chill: 24°   Ceiling: NA
Heat Index: 32°   Visibility: NA
Dew Point: 18°   Wind: 9mph
Humidity: 55%   Direction: 310°NW
Pressure: 29.94"   Gusts: NA
Location:  38.42°N, 77.25°E
Report Text: ZWSH 241800Z AUTO 31004MPS //// M00/M08 Q1014
Loading
Personal Weather Stations






























Interactive Weather Map New forecast layout! Learn more

10-Day Weather Forecast

Advertisements
Track Severe Weather on mobile